Frazeysburg, Ohio
Current Conditions -  °F | °C
As of 10:53 AM on Saturday 25 Oct 2014 (Local Time) from KZZV Reporting Station
Overcast Overcast  
Wind Chill: 53°   Ceiling: 6500
Heat Index: 53°   Visibility: 10mi
Dew Point: 46°   Wind: 9mph
Humidity: 77%   Direction: 190°S
Pressure: 29.96"   Gusts: NA
Location:  40.12°N, 82.12°W
Report Text: KZZV 251453Z AUTO 19008KT 10SM OVC065 12/08 A2996 RMK AO2 SLP148 T01170078 58002
Loading
Personal Weather Stations






























Interactive Weather Map
Tropical Storm Tracking
New forecast layout! Learn more

10-Day Weather Forecast

Advertisements
Track Severe Weather on mobile